Airfield :
LOGIN :

Register | Disclaimer

   EN    FR    IT 

 










Legend :    VFR   Marginal VFR   IFR   Intensive IFR   Very Intensive IFR
Visi :
Ceiling :
>= 8 km
>= 3000ft
5 to 8 km
1000 to 3000 ft
1500m to 5 km
500 to 1000 ft
800 to 1500m
200 to 500 ft
< 800m
< 200 ft
Symbols :   Thunderstorms  Fog  Heavy snow  Heavy precipitations  Wind > 20 kt
SIGMETs :     Misc.  Thunderstorms  Icing  Turbulence  Mountain Waves  Volcanic Ashes






- Airport Elevation : 26 ft
- IATA code : GLA


EGPF - Glasgow

CURRENT METAR :
  • 050250Z AUTO 01008KT 9999 SCT037/// BKN045/// //////TCU 05/02 Q0992

EXPIRED METARs :
  • 050220Z AUTO 01008KT 330V040 9999 BKN037 05/02 Q0991
  • 050150Z AUTO 02013KT 9999 SCT043 05/03 Q0991
  • 050120Z AUTO 01015KT 9999 //////TCU 05/03 Q0991
  • 050050Z AUTO 36009KT 9999 -RA //////TCU 05/03 Q0990
  • 050020Z AUTO 02010KT 9000 -RA SCT027/// BKN032/// BKN044/// //////TCU 05/03 Q0991

TAF TAF EGPF
Valid from the 05 at 00:00 until the 06 at 00:00 UTC


042255Z 0500/0524 02012KT 9999 FEW012 SCT030
PROB40
TEMPO 0500/0509 7000 SHRA BKN012
PROB30
TEMPO 0500/0506 03015G25KT
TEMPO 0512/0524 6000
PROB40
TEMPO 0512/0521 4000 BR
ATIS : +44 141 887 7449



MET'MAP, your aeronautical weather chart ! - Copyright ORBIFLY December 2007 - Disclaimer

ORBIFLY MET'MAP TEAM :

Programming & Development : Alexandra Zaïnal
Concept & original design : Baudouin d'Aumeries
Assistance for programming : Marc-Olivier Méhu
Technical & hardware support : Manuel Goepfert

Contact : metmap@orbifly.com




SOURCES & CREDITS :

   NOAA